createdAt,value
2018-04-19T00:02:41.116Z,96273.78
2018-04-19T00:05:44.543Z,96269.22
2018-04-19T00:08:48.578Z,96264.70
2018-04-19T00:11:51.865Z,96268.61
2018-04-19T00:14:55.115Z,96263.03
2018-04-19T00:17:58.391Z,96260.89
2018-04-19T00:21:01.645Z,96261.41
2018-04-19T00:24:04.943Z,96256.75
2018-04-19T00:27:08.964Z,96250.39
2018-04-19T00:30:12.448Z,96250.00
2018-04-19T00:33:16.468Z,96248.34
2018-04-19T00:36:20.525Z,96249.58
2018-04-19T00:39:23.801Z,96252.73
2018-04-19T00:42:27.070Z,96248.14
2018-04-19T00:45:31.083Z,96246.31
2018-04-19T00:48:35.150Z,96247.58
2018-04-19T00:51:38.407Z,96252.03
2018-04-19T00:54:42.464Z,96252.80
2018-04-19T00:57:45.744Z,96242.25
2018-04-19T01:00:49.004Z,96244.78
2018-04-19T01:03:52.259Z,96241.42
2018-04-19T01:06:55.642Z,96239.77
2018-04-19T01:09:58.913Z,96239.47
2018-04-19T01:13:02.936Z,96236.45
2018-04-19T01:16:06.949Z,96234.73
2018-04-19T01:19:10.993Z,96232.12
2018-04-19T01:22:14.276Z,96242.09
2018-04-19T01:25:17.550Z,96237.97
2018-04-19T01:28:21.696Z,96243.73
2018-04-19T01:31:24.954Z,96245.98
2018-04-19T01:34:28.254Z,96245.20
2018-04-19T01:37:32.280Z,96241.55
2018-04-19T01:40:36.361Z,96241.58
2018-04-19T01:43:39.630Z,96243.66
2018-04-19T01:46:42.922Z,96241.50
2018-04-19T01:49:46.209Z,96241.64
2018-04-19T01:52:49.471Z,96240.20
2018-04-19T01:55:52.720Z,96237.32
2018-04-19T01:58:56.011Z,96232.06
2018-04-19T02:02:00.867Z,96225.76
2018-04-19T02:05:04.124Z,96223.34
2018-04-19T02:08:08.162Z,96210.97
2018-04-19T02:11:11.410Z,96216.49
2018-04-19T02:14:14.675Z,96214.81
2018-04-19T02:17:18.691Z,96213.63
2018-04-19T02:20:21.966Z,96215.27
2018-04-19T02:23:25.263Z,96209.30
2018-04-19T02:26:29.480Z,96208.06
2018-04-19T02:29:32.774Z,96208.88
2018-04-19T02:32:36.851Z,96206.03
2018-04-19T02:35:40.893Z,96208.56
2018-04-19T02:38:44.179Z,96206.95
2018-04-19T02:41:48.222Z,96205.11
2018-04-19T02:44:51.486Z,96205.66
2018-04-19T02:47:55.527Z,96195.36
2018-04-19T02:50:58.792Z,96199.23
2018-04-19T02:54:02.821Z,96198.34
2018-04-19T02:57:06.842Z,96193.84
2018-04-19T03:00:10.115Z,96192.05
2018-04-19T03:03:14.168Z,96192.72
2018-04-19T03:06:17.531Z,96190.19
2018-04-19T03:09:21.641Z,96189.81
2018-04-19T03:12:25.910Z,96186.09
2018-04-19T03:15:29.326Z,96187.16
2018-04-19T03:18:32.592Z,96193.06
2018-04-19T03:21:35.833Z,96189.30
2018-04-19T03:24:39.123Z,96188.43
2018-04-19T03:27:43.153Z,96185.84
2018-04-19T03:30:46.493Z,96191.47
2018-04-19T03:33:50.608Z,96190.95
2018-04-19T03:37:12.911Z,96195.71
2018-04-19T03:40:17.978Z,96195.91
2018-04-19T03:43:21.993Z,96191.87
2018-04-19T03:46:26.103Z,96193.15
2018-04-19T03:49:29.432Z,96192.03
2018-04-19T03:52:32.699Z,96188.23
2018-04-19T03:55:36.734Z,96179.89
2018-04-19T03:58:40.023Z,96183.50
2018-04-19T04:01:44.045Z,96187.05
2018-04-19T04:04:48.068Z,96188.52
2018-04-19T04:07:51.360Z,96187.64
2018-04-19T04:10:54.641Z,96188.19
2018-04-19T04:13:58.669Z,96193.77
2018-04-19T04:17:20.403Z,96196.47
2018-04-19T04:20:42.264Z,96195.81
2018-04-19T04:23:53.363Z,96197.79
2018-04-19T04:27:01.213Z,96202.73
2018-04-19T04:30:04.939Z,96201.54
2018-04-19T04:33:08.571Z,96206.11
2018-04-19T04:36:12.888Z,96198.71
2018-04-19T04:39:16.605Z,96202.89
2018-04-19T04:42:21.961Z,96199.55
2018-04-19T04:45:25.236Z,96196.22
2018-04-19T04:48:30.081Z,96202.98
2018-04-19T04:51:33.962Z,96193.02
2018-04-19T04:54:37.577Z,96197.03
2018-04-19T04:58:01.370Z,96193.47
2018-04-19T05:01:06.510Z,96193.58
2018-04-19T05:04:11.762Z,96191.45
2018-04-19T05:07:18.070Z,96197.72
2018-04-19T05:10:24.651Z,96203.25
2018-04-19T05:13:27.910Z,96202.69
2018-04-19T05:16:32.617Z,96201.12
2018-04-19T05:19:36.713Z,96205.96
2018-04-19T05:22:40.003Z,96204.70
2018-04-19T05:25:43.257Z,96201.60
2018-04-19T05:28:48.151Z,96201.75
2018-04-19T05:31:51.518Z,96206.61
2018-04-19T05:34:55.541Z,96206.06
2018-04-19T05:37:58.798Z,96207.89
2018-04-19T05:41:02.050Z,96208.56
2018-04-19T05:44:05.322Z,96207.64
2018-04-19T05:47:09.346Z,96205.82
2018-04-19T05:50:12.601Z,96204.00
2018-04-19T05:53:15.876Z,96194.34
2018-04-19T05:56:19.154Z,96196.06
2018-04-19T05:59:22.435Z,96200.50
2018-04-19T06:02:25.705Z,96201.74
2018-04-19T06:05:28.967Z,96195.66
2018-04-19T06:08:32.245Z,96191.40
2018-04-19T06:11:35.534Z,96193.91
2018-04-19T06:14:38.806Z,96190.34
2018-04-19T06:17:42.834Z,96198.83
2018-04-19T06:20:46.111Z,96199.29
2018-04-19T06:23:50.272Z,96198.78
2018-04-19T06:26:53.559Z,96201.70
2018-04-19T06:29:56.927Z,96196.70
2018-04-19T06:33:00.192Z,96196.17
2018-04-19T06:36:03.477Z,96201.39
2018-04-19T06:39:06.748Z,96201.03
2018-04-19T06:42:10.787Z,96201.43
2018-04-19T06:45:14.055Z,96202.53
2018-04-19T06:48:17.326Z,96200.24
2018-04-19T06:51:20.608Z,96197.23
2018-04-19T06:54:23.861Z,96191.89
2018-04-19T06:57:27.163Z,96192.20
2018-04-19T07:00:30.442Z,96187.30
2018-04-19T07:03:34.499Z,96189.27
2018-04-19T07:06:37.792Z,96191.46
2018-04-19T07:09:41.090Z,96191.01
2018-04-19T07:12:44.393Z,96186.45
2018-04-19T07:15:47.670Z,96185.73
2018-04-19T07:18:50.947Z,96187.42
2018-04-19T07:21:54.243Z,96192.41
2018-04-19T07:24:57.517Z,96187.77
2018-04-19T07:28:01.566Z,96184.86
2018-04-19T07:31:04.872Z,96196.09
2018-04-19T07:34:08.152Z,96187.05
2018-04-19T07:37:11.425Z,96188.03
2018-04-19T07:40:15.464Z,96193.23
2018-04-19T07:43:18.915Z,96188.41
2018-04-19T07:46:22.213Z,96190.84
2018-04-19T07:49:25.515Z,96185.13
2018-04-19T07:52:28.784Z,96192.80
2018-04-19T07:55:32.104Z,96187.95
2018-04-19T07:58:35.390Z,96196.00
2018-04-19T08:01:38.652Z,96199.25
2018-04-19T08:04:41.997Z,96192.02
2018-04-19T08:07:45.272Z,96189.73
2018-04-19T08:10:48.592Z,96184.52
2018-04-19T08:13:51.979Z,96185.64
2018-04-19T08:16:55.238Z,96189.02
2018-04-19T08:19:58.554Z,96185.48
2018-04-19T08:23:02.600Z,96193.48
2018-04-19T08:26:05.909Z,96190.70
2018-04-19T08:29:09.185Z,96189.85
2018-04-19T08:32:12.459Z,96197.23
2018-04-19T08:35:16.511Z,96191.25
2018-04-19T08:38:19.797Z,96190.91
2018-04-19T08:41:23.147Z,96194.23
2018-04-19T08:44:26.397Z,96195.38
2018-04-19T08:47:29.671Z,96191.28
2018-04-19T08:50:32.954Z,96190.31
2018-04-19T08:53:37.013Z,96184.02
2018-04-19T08:56:40.278Z,96184.33
2018-04-19T08:59:44.334Z,96188.45
2018-04-19T09:02:47.631Z,96192.94
2018-04-19T09:05:50.921Z,96186.85
2018-04-19T09:08:54.255Z,96185.70
2018-04-19T09:11:57.532Z,96189.09
2018-04-19T09:15:00.795Z,96188.06
2018-04-19T09:18:04.068Z,96181.02
2018-04-19T09:21:08.108Z,96179.66
2018-04-19T09:24:11.386Z,96177.64
2018-04-19T09:27:15.618Z,96183.23
2018-04-19T09:30:18.879Z,96174.70
2018-04-19T09:33:22.193Z,96180.66
2018-04-19T09:36:26.224Z,96175.78
2018-04-19T09:39:29.498Z,96176.86
2018-04-19T09:42:32.894Z,96179.12
2018-04-19T09:45:36.146Z,96177.02
2018-04-19T09:48:39.416Z,96172.02
2018-04-19T09:51:42.674Z,96171.20
2018-04-19T09:54:45.939Z,96175.94
2018-04-19T09:58:06.893Z,96173.89
2018-04-19T10:01:11.102Z,96174.67
2018-04-19T10:04:14.434Z,96172.84
2018-04-19T10:07:17.691Z,96164.87
2018-04-19T10:10:20.967Z,96159.98
2018-04-19T10:13:24.245Z,96152.39
2018-04-19T10:16:27.540Z,96146.16
2018-04-19T10:19:30.814Z,96159.25
2018-04-19T10:22:35.381Z,96153.85
2018-04-19T10:25:38.638Z,96148.38
2018-04-19T10:28:42.666Z,96147.45
2018-04-19T10:31:45.925Z,96147.21
2018-04-19T10:34:49.192Z,96146.91
2018-04-19T10:37:52.470Z,96146.10
2018-04-19T10:40:56.396Z,96146.16
2018-04-19T10:43:59.660Z,96151.64
2018-04-19T10:47:03.766Z,96140.82
2018-04-19T10:50:07.019Z,96138.18
2018-04-19T10:53:10.338Z,96140.58
2018-04-19T10:56:13.782Z,96139.74
2018-04-19T10:59:17.066Z,96141.33
2018-04-19T11:02:21.161Z,96133.31
2018-04-19T11:05:25.195Z,96128.04
2018-04-19T11:08:29.234Z,96128.20
2018-04-19T11:11:32.516Z,96122.00
2018-04-19T11:14:36.563Z,96128.37
2018-04-19T11:17:39.823Z,96128.23
2018-04-19T11:20:43.875Z,96123.94
2018-04-19T11:23:47.159Z,96112.19
2018-04-19T11:26:50.428Z,96114.70
2018-04-19T11:29:54.484Z,96105.27
2018-04-19T11:32:57.781Z,96101.63
2018-04-19T11:36:01.044Z,96106.99
2018-04-19T11:39:04.355Z,96106.53
2018-04-19T11:42:07.634Z,96103.84
2018-04-19T11:45:11.651Z,96100.82
2018-04-19T11:48:15.709Z,96099.98
2018-04-19T11:51:18.968Z,96100.70
2018-04-19T11:54:23.092Z,96092.63
2018-04-19T11:57:26.426Z,96097.97
2018-04-19T12:00:29.674Z,96093.78
2018-04-19T12:03:33.727Z,96098.40
2018-04-19T12:06:36.998Z,96095.55
2018-04-19T12:09:41.325Z,96089.91
2018-04-19T12:12:44.676Z,96088.14
2018-04-19T12:15:48.165Z,96092.43
2018-04-19T12:18:51.433Z,96081.39
2018-04-19T12:21:54.691Z,96086.37
2018-04-19T12:24:57.969Z,96086.08
2018-04-19T12:28:01.226Z,96079.82
2018-04-19T12:31:04.500Z,96078.61
2018-04-19T12:34:08.581Z,96076.09
2018-04-19T12:37:11.811Z,96084.30
2018-04-19T12:40:15.868Z,96073.81
2018-04-19T12:43:19.136Z,96069.77
2018-04-19T12:46:23.164Z,96066.89
2018-04-19T12:49:26.439Z,96071.34
2018-04-19T12:52:35.425Z,96069.61
2018-04-19T12:55:40.174Z,96057.23
2018-04-19T12:58:43.461Z,96053.20
2018-04-19T13:01:47.228Z,96057.10
2018-04-19T13:04:52.283Z,96055.61
2018-04-19T13:07:55.609Z,96048.66
2018-04-19T13:10:58.885Z,96040.92
2018-04-19T13:14:02.255Z,96034.59
2018-04-19T13:17:06.327Z,96031.70
2018-04-19T13:20:09.616Z,96029.16
2018-04-19T13:23:12.907Z,96026.57
2018-04-19T13:26:16.226Z,96025.98
2018-04-19T13:29:20.293Z,96026.39
2018-04-19T13:32:24.624Z,96019.55
2018-04-19T13:35:27.914Z,96013.00
2018-04-19T13:38:31.186Z,96009.11
2018-04-19T13:41:35.262Z,96012.84
2018-04-19T13:44:38.522Z,95998.91
2018-04-19T13:47:41.805Z,96001.39
2018-04-19T13:50:45.139Z,95992.73
2018-04-19T13:53:49.233Z,95986.13
2018-04-19T13:56:52.528Z,95981.85
2018-04-19T13:59:56.583Z,95983.63
2018-04-19T14:02:59.959Z,95983.99
2018-04-19T14:06:04.294Z,95984.40
2018-04-19T14:09:10.361Z,95980.72
2018-04-19T14:12:13.633Z,95965.05
2018-04-19T14:15:16.949Z,95965.24
2018-04-19T14:18:20.214Z,95972.83
2018-04-19T14:21:23.670Z,95963.86
2018-04-19T14:24:26.950Z,95958.64
2018-04-19T14:27:30.263Z,95965.64
2018-04-19T14:30:33.802Z,95951.06
2018-04-19T14:33:37.136Z,95957.87
2018-04-19T14:36:40.415Z,95953.42
2018-04-19T14:39:43.714Z,95952.05
2018-04-19T14:42:46.970Z,95945.48
2018-04-19T14:45:50.247Z,95945.66
2018-04-19T14:48:53.531Z,95945.67
2018-04-19T14:51:56.981Z,95949.16
2018-04-19T14:55:01.041Z,95943.16
2018-04-19T14:58:04.314Z,95951.48
2018-04-19T15:01:07.647Z,95947.41
2018-04-19T15:04:10.920Z,95953.80
2018-04-19T15:07:14.185Z,95944.08
2018-04-19T15:10:17.469Z,95946.44
2018-04-19T15:13:20.747Z,95948.56
2018-04-19T15:16:24.229Z,95950.30
2018-04-19T15:19:27.554Z,95952.80
2018-04-19T15:22:30.830Z,95949.48
2018-04-19T15:25:34.101Z,95945.23
2018-04-19T15:28:37.361Z,95946.39
2018-04-19T15:31:40.670Z,95941.33
2018-04-19T15:34:43.918Z,95939.78
2018-04-19T15:37:47.189Z,95937.27
2018-04-19T15:40:51.215Z,95931.67
2018-04-19T15:43:54.506Z,95930.94
2018-04-19T15:46:57.847Z,95935.94
2018-04-19T15:50:01.182Z,95929.48
2018-04-19T15:53:04.454Z,95931.22
2018-04-19T15:56:07.786Z,95930.45
2018-04-19T15:59:11.826Z,95927.13
2018-04-19T16:02:15.136Z,95922.05
2018-04-19T16:05:18.417Z,95927.84
2018-04-19T16:08:23.446Z,95925.92
2018-04-19T16:11:27.771Z,95929.39
2018-04-19T16:14:32.028Z,95928.97
2018-04-19T16:17:35.299Z,95924.73
2018-04-19T16:20:39.498Z,95925.06
2018-04-19T16:23:43.547Z,95924.67
2018-04-19T16:26:46.810Z,95923.28
2018-04-19T16:29:50.091Z,95921.77
2018-04-19T16:32:53.403Z,95928.84
2018-04-19T16:35:57.395Z,95929.81
2018-04-19T16:39:00.664Z,95928.96
2018-04-19T16:42:03.992Z,95933.55
2018-04-19T16:45:08.043Z,95930.64
2018-04-19T16:48:11.656Z,95925.18
2018-04-19T16:51:15.994Z,95930.70
2018-04-19T16:54:20.014Z,95928.55
2018-04-19T16:57:24.198Z,95922.13
2018-04-19T17:00:28.298Z,95918.57
2018-04-19T17:03:31.924Z,95924.03
2018-04-19T17:06:35.200Z,95924.93
2018-04-19T17:09:38.537Z,95926.60
2018-04-19T17:12:41.842Z,95924.23
2018-04-19T17:15:45.309Z,95921.06
2018-04-19T17:18:49.368Z,95920.98
2018-04-19T17:21:53.484Z,95924.88
2018-04-19T17:24:56.782Z,95926.11
2018-04-19T17:28:03.121Z,95931.92
2018-04-19T17:31:06.453Z,95927.73
2018-04-19T17:34:10.514Z,95923.17
2018-04-19T17:37:14.011Z,95925.92
2018-04-19T17:40:17.411Z,95930.94
2018-04-19T17:43:20.766Z,95922.14
2018-04-19T17:46:24.853Z,95929.15
2018-04-19T17:49:28.276Z,95927.38
2018-04-19T17:52:32.295Z,95934.70
2018-04-19T17:55:37.299Z,95935.95
2018-04-19T17:58:40.570Z,95937.28
2018-04-19T18:01:43.832Z,95938.02
2018-04-19T18:05:04.101Z,95940.28
2018-04-19T18:08:34.660Z,95934.38
2018-04-19T18:11:40.386Z,95932.13
2018-04-19T18:14:43.716Z,95936.08
2018-04-19T18:17:47.737Z,95938.25
2018-04-19T18:20:51.767Z,95935.03
2018-04-19T18:23:55.063Z,95935.69
2018-04-19T18:26:58.333Z,95931.75
2018-04-19T18:30:02.359Z,95941.89
2018-04-19T18:33:05.655Z,95939.20
2018-04-19T18:36:09.682Z,95939.62
2018-04-19T18:39:12.983Z,95949.34
2018-04-19T18:42:16.267Z,95952.27
2018-04-19T18:45:20.480Z,95952.16
2018-04-19T18:48:23.757Z,95958.36
2018-04-19T18:51:27.023Z,95954.27
2018-04-19T18:54:30.289Z,95963.17
2018-04-19T18:57:33.573Z,95959.54
2018-04-19T19:00:37.619Z,95965.58
2018-04-19T19:03:40.884Z,95958.66
2018-04-19T19:06:45.996Z,95965.86
2018-04-19T19:09:50.688Z,95964.77
2018-04-19T19:12:53.969Z,95959.60
2018-04-19T19:16:12.119Z,95960.66
2018-04-19T19:19:34.315Z,95968.87
2018-04-19T19:22:37.633Z,95966.52
2018-04-19T19:25:40.938Z,95973.20
2018-04-19T19:28:44.175Z,95972.51
2018-04-19T19:31:47.530Z,95967.59
2018-04-19T19:34:50.801Z,95975.24
2018-04-19T19:37:58.964Z,95979.27
2018-04-19T19:41:02.826Z,95977.09
2018-04-19T19:44:06.117Z,95972.08
2018-04-19T19:47:11.845Z,95973.34
2018-04-19T19:50:15.131Z,95968.61
2018-04-19T19:53:19.067Z,95968.51
2018-04-19T19:56:22.366Z,95965.70
2018-04-19T19:59:26.419Z,95966.18
2018-04-19T20:02:29.709Z,95960.73
2018-04-19T20:05:32.999Z,95964.98
2018-04-19T20:08:40.352Z,95963.55
2018-04-19T20:11:43.615Z,95954.95
2018-04-19T20:14:46.889Z,95951.41
2018-04-19T20:17:50.953Z,95948.44
2018-04-19T20:20:54.240Z,95942.56
2018-04-19T20:23:57.503Z,95947.47
2018-04-19T20:27:01.535Z,95947.48
2018-04-19T20:30:05.625Z,95953.97
2018-04-19T20:33:08.857Z,95947.16
2018-04-19T20:36:12.159Z,95949.75
2018-04-19T20:39:15.471Z,95942.42
2018-04-19T20:42:18.747Z,95942.08
2018-04-19T20:45:22.045Z,95941.14
2018-04-19T20:48:25.313Z,95939.42
2018-04-19T20:51:28.598Z,95937.42
2018-04-19T20:54:32.961Z,95938.16
2018-04-19T20:57:37.931Z,95939.49
2018-04-19T21:00:41.358Z,95939.24
2018-04-19T21:03:44.654Z,95936.68
2018-04-19T21:06:47.919Z,95940.86
2018-04-19T21:09:51.188Z,95933.59
2018-04-19T21:12:55.206Z,95933.86
2018-04-19T21:15:59.229Z,95933.58
2018-04-19T21:19:03.333Z,95929.89
2018-04-19T21:22:07.389Z,95932.96
2018-04-19T21:25:10.694Z,95933.75
2018-04-19T21:28:13.978Z,95938.14
2018-04-19T21:31:17.238Z,95938.69
2018-04-19T21:34:20.502Z,95935.88
2018-04-19T21:37:23.767Z,95935.22
2018-04-19T21:40:27.044Z,95940.89
2018-04-19T21:43:31.494Z,95934.67
2018-04-19T21:46:34.762Z,95939.32
2018-04-19T21:49:38.943Z,95927.95
2018-04-19T21:52:42.196Z,95929.30
2018-04-19T21:55:46.219Z,95931.41
2018-04-19T21:58:50.385Z,95932.20
2018-04-19T22:01:53.724Z,95930.23
2018-04-19T22:04:57.848Z,95929.70
2018-04-19T22:08:01.136Z,95921.47
2018-04-19T22:11:05.161Z,95926.16
2018-04-19T22:14:08.501Z,95921.93
2018-04-19T22:17:12.554Z,95923.75
2018-04-19T22:20:16.594Z,95923.58
2018-04-19T22:23:19.872Z,95923.49
2018-04-19T22:26:23.569Z,95926.41
2018-04-19T22:29:27.816Z,95918.27
2018-04-19T22:32:31.897Z,95918.72
2018-04-19T22:35:35.180Z,95920.91
2018-04-19T22:38:38.460Z,95909.73
2018-04-19T22:41:41.721Z,95911.59
2018-04-19T22:44:45.751Z,95914.64
2018-04-19T22:47:49.009Z,95914.63
2018-04-19T22:50:52.278Z,95915.52
2018-04-19T22:53:55.610Z,95908.48
2018-04-19T22:56:58.950Z,95912.69
2018-04-19T23:00:02.338Z,95913.18
2018-04-19T23:03:06.148Z,95908.86
2018-04-19T23:06:09.424Z,95904.88
2018-04-19T23:09:12.690Z,95897.29
2018-04-19T23:12:15.965Z,95898.20
2018-04-19T23:15:19.266Z,95903.06
2018-04-19T23:18:22.532Z,95895.98
2018-04-19T23:21:25.808Z,95893.27
2018-04-19T23:24:29.878Z,95896.08
2018-04-19T23:27:33.204Z,95887.08
2018-04-19T23:30:36.533Z,95888.92
2018-04-19T23:33:39.791Z,95885.00
2018-04-19T23:36:43.047Z,95887.17
2018-04-19T23:39:46.415Z,95891.49
2018-04-19T23:42:49.669Z,95886.53
2018-04-19T23:45:53.760Z,95881.31
2018-04-19T23:52:07.452Z,95870.56
2018-04-19T23:55:10.716Z,95866.96
2018-04-19T23:58:14.081Z,95868.80
